Time;durP1;ratioP1;P1;durP2;ratioP2;P2;SDS_P1;SDS_P2;PMS_P1;PMS_P2;Temp;Humidity;BMP_temperature;BMP_pressure;BME280_temperature;BME280_humidity;BME280_pressure;Samples;Min_cycle;Max_cycle;Signal;HPM_P1;HPM_P2
2022/11/13 00:04:40;;;;;;;39.97;7.88;;;;;;;7.94;74.79;101575.16;10388558;28;20145;-64
2022/11/13 00:09:41;;;;;;;36.65;9.10;;;;;;;7.89;74.78;101566.66;10387544;28;20061;-67
2022/11/13 00:14:42;;;;;;;67.35;10.07;;;;;;;7.82;73.86;101554.75;10388529;28;20072;-66
2022/11/13 00:19:44;;;;;;;53.63;10.07;;;;;;;7.83;74.73;101551.09;10390971;28;20107;-64
2022/11/13 00:24:45;;;;;;;38.78;9.10;;;;;;;7.81;73.86;101547.72;10382366;28;20551;-67
2022/11/13 00:29:47;;;;;;;73.00;10.32;;;;;;;7.72;74.38;101539.47;10387543;28;20144;-65
2022/11/13 00:34:48;;;;;;;81.13;10.82;;;;;;;7.76;74.17;101542.75;10388179;28;20068;-67
2022/11/13 00:39:49;;;;;;;53.08;8.55;;;;;;;7.68;74.51;101538.03;10384209;28;20547;-67
2022/11/13 00:44:57;;;;;;;23.40;7.85;;;;;;;7.64;74.78;101535.72;10384392;28;20050;-67
2022/11/13 00:49:58;;;;;;;36.45;9.18;;;;;;;7.62;74.16;101527.84;10386839;28;20049;-66
2022/11/13 00:55:00;;;;;;;81.22;9.98;;;;;;;7.63;74.51;101526.00;10388510;28;20473;-65
2022/11/13 01:00:01;;;;;;;37.70;9.45;;;;;;;7.59;74.46;101527.25;10384223;28;20518;-67
2022/11/13 01:05:03;;;;;;;53.70;10.35;;;;;;;7.55;74.51;101529.31;10387595;28;20223;-67
2022/11/13 01:10:06;;;;;;;22.38;8.27;;;;;;;7.54;74.04;101519.56;10394401;28;20487;-65
2022/11/13 01:15:08;;;;;;;28.45;8.80;;;;;;;7.47;73.64;101521.09;10386643;28;20141;-66
2022/11/13 01:20:10;;;;;;;15.25;8.07;;;;;;;7.47;74.67;101513.91;10390438;28;20050;-66
2022/11/13 01:25:11;;;;;;;36.83;9.13;;;;;;;7.43;74.83;101515.13;10387754;28;20058;-67
2022/11/13 01:30:12;;;;;;;82.82;10.27;;;;;;;7.37;74.05;101510.28;10390873;28;20128;-67
2022/11/13 01:35:14;;;;;;;92.63;10.73;;;;;;;7.30;74.23;101499.22;10384404;28;20061;-67
2022/11/13 01:40:15;;;;;;;67.40;9.60;;;;;;;7.26;74.57;101494.28;10385108;28;20045;-67
2022/11/13 01:46:08;;;;;;;157.98;15.88;;;;;;;7.17;74.12;101503.91;10382523;28;20069;-66
2022/11/13 01:51:19;;;;;;;57.28;10.25;;;;;;;7.13;74.09;101489.94;10329800;28;20420;-66
2022/11/13 01:56:21;;;;;;;75.05;8.95;;;;;;;7.09;74.71;101488.50;10379068;28;20141;-66
2022/11/13 02:01:22;;;;;;;70.28;8.40;;;;;;;7.01;74.38;101490.06;10385048;28;20549;-66
2022/11/13 02:06:29;;;;;;;45.80;9.10;;;;;;;7.05;73.82;101480.81;10386719;28;20053;-66
2022/11/13 02:11:30;;;;;;;38.30;8.73;;;;;;;7.09;74.44;101479.59;10382599;28;20104;-66
2022/11/13 02:16:35;;;;;;;15.98;7.70;;;;;;;7.04;74.41;101479.13;10382737;28;20587;-66
2022/11/13 02:21:46;;;;;;;42.55;8.18;;;;;;;7.05;74.05;101484.38;10383103;28;20508;-65
2022/11/13 02:26:50;;;;;;;41.25;7.70;;;;;;;7.02;73.78;101481.09;10380001;28;20111;-66
2022/11/13 02:31:52;;;;;;;16.67;6.75;;;;;;;6.98;74.04;101487.66;10383526;28;20145;-66
2022/11/13 02:36:53;;;;;;;11.95;5.82;;;;;;;6.88;74.42;101483.06;10385198;28;20052;-67
2022/11/13 02:41:54;;;;;;;17.67;6.60;;;;;;;6.91;74.82;101479.28;10365571;28;20076;-65
2022/11/13 02:46:56;;;;;;;19.73;6.28;;;;;;;6.80;74.34;101487.31;10381745;28;20138;-66
2022/11/13 02:51:57;;;;;;;20.33;6.97;;;;;;;6.75;73.65;101485.00;10383166;28;20069;-65
2022/11/13 02:56:59;;;;;;;19.77;6.13;;;;;;;6.65;74.11;101468.84;10380708;28;20128;-66
2022/11/13 03:02:00;;;;;;;29.05;7.07;;;;;;;6.47;74.56;101475.69;10359459;28;20498;-66
2022/11/13 03:07:02;;;;;;;35.72;8.63;;;;;;;6.42;73.88;101460.03;10384553;28;20129;-66
2022/11/13 03:12:03;;;;;;;38.45;7.80;;;;;;;6.19;74.74;101450.31;10368733;28;20693;-66
2022/11/13 03:17:05;;;;;;;31.20;7.38;;;;;;;6.00;74.50;101446.38;10382879;28;20137;-66
2022/11/13 03:22:06;;;;;;;13.93;7.35;;;;;;;5.99;74.46;101451.88;10382078;28;20144;-67
2022/11/13 03:27:08;;;;;;;17.58;8.05;;;;;;;5.99;74.23;101436.69;10382695;28;20128;-67
2022/11/13 03:32:09;;;;;;;13.90;5.90;;;;;;;6.00;73.97;101438.38;10386318;28;20560;-65
2022/11/13 03:37:11;;;;;;;40.00;8.77;;;;;;;5.98;74.00;101442.97;10383709;28;20081;-67
2022/11/13 03:42:12;;;;;;;18.63;7.60;;;;;;;5.96;73.64;101439.59;10388724;28;20488;-67
2022/11/13 03:47:14;;;;;;;16.60;6.70;;;;;;;5.88;74.75;101436.63;10391824;28;20037;-67
2022/11/13 03:52:15;;;;;;;14.18;7.10;;;;;;;5.89;74.66;101449.88;10387341;28;20511;-67
2022/11/13 03:57:17;;;;;;;12.02;6.72;;;;;;;5.88;73.99;101447.31;10379633;28;20148;-66
2022/11/13 04:02:18;;;;;;;13.05;7.15;;;;;;;5.92;74.40;101440.75;10371006;28;20072;-66
2022/11/13 04:07:20;;;;;;;12.73;7.05;;;;;;;5.93;74.19;101429.13;10381938;28;20042;-66
2022/11/13 04:12:21;;;;;;;14.65;6.75;;;;;;;5.89;74.28;101427.69;10383279;28;20046;-66
2022/11/13 04:17:23;;;;;;;18.08;6.60;;;;;;;5.86;74.49;101417.22;10384915;28;20038;-67
2022/11/13 04:22:24;;;;;;;16.10;5.75;;;;;;;5.84;74.10;101414.66;10390024;28;20108;-67
2022/11/13 04:27:25;;;;;;;15.23;6.72;;;;;;;5.66;74.73;101411.59;10386192;28;20078;-67
2022/11/13 04:32:27;;;;;;;10.65;5.75;;;;;;;5.66;74.70;101395.59;10372121;28;20141;-66
2022/11/13 04:37:28;;;;;;;8.82;5.63;;;;;;;5.71;74.24;101395.28;10387978;28;20918;-65
2022/11/13 04:42:48;;;;;;;10.00;6.43;;;;;;;5.68;74.69;101403.50;10375952;28;20582;-66
2022/11/13 04:47:50;;;;;;;7.60;5.80;;;;;;;5.65;74.29;101388.59;10386684;28;20066;-64
2022/11/13 04:52:51;;;;;;;6.88;4.97;;;;;;;5.65;74.20;101385.91;10380957;28;20073;-66
2022/11/13 04:57:54;;;;;;;6.57;4.80;;;;;;;5.60;73.73;101387.22;10383547;28;20125;-65
2022/11/13 05:02:55;;;;;;;6.78;5.22;;;;;;;5.51;73.92;101383.44;10386778;28;20073;-65
2022/11/13 05:07:59;;;;;;;7.97;5.53;;;;;;;5.40;74.05;101375.44;10388050;28;20053;-65
2022/11/13 05:13:01;;;;;;;9.45;5.60;;;;;;;5.31;74.44;101366.31;10385791;28;20054;-65
2022/11/13 05:18:02;;;;;;;8.23;5.78;;;;;;;5.35;74.09;101363.31;10384796;28;20507;-65
2022/11/13 05:23:04;;;;;;;9.35;5.72;;;;;;;5.33;74.65;101362.56;10370650;28;20578;-66
2022/11/13 05:28:05;;;;;;;8.40;6.03;;;;;;;5.28;74.27;101359.41;10383207;28;20053;-64
2022/11/13 05:33:07;;;;;;;10.30;6.32;;;;;;;5.18;74.89;101344.22;10386276;28;20057;-66
2022/11/13 05:38:08;;;;;;;9.85;6.20;;;;;;;5.11;74.57;101346.50;10381192;28;20446;-63
2022/11/13 05:43:09;;;;;;;7.97;5.70;;;;;;;5.18;75.07;101339.75;10378525;28;20116;-63
2022/11/13 05:48:11;;;;;;;8.52;5.85;;;;;;;5.26;74.80;101333.84;10384860;28;20103;-65
2022/11/13 05:53:12;;;;;;;9.15;5.72;;;;;;;5.24;74.36;101325.94;10386634;28;20088;-65
2022/11/13 05:58:14;;;;;;;10.60;6.18;;;;;;;5.25;74.39;101324.13;10381734;28;20076;-65
2022/11/13 06:03:15;;;;;;;8.25;6.13;;;;;;;5.27;74.41;101319.53;10388306;28;20502;-65
2022/11/13 06:08:16;;;;;;;14.30;5.80;;;;;;;5.20;74.76;101321.81;10384981;28;20104;-65
2022/11/13 06:13:18;;;;;;;11.90;6.50;;;;;;;5.22;74.76;101313.72;10370599;28;20076;-66
2022/11/13 06:18:23;;;;;;;31.00;6.90;;;;;;;5.21;74.84;101304.84;10367801;28;20449;-65
2022/11/13 06:23:27;;;;;;;10.13;5.05;;;;;;;5.19;74.86;101312.09;10376411;28;20100;-66
2022/11/13 06:28:28;;;;;;;8.82;5.88;;;;;;;5.21;74.52;101310.19;10364782;28;20069;-65
2022/11/13 06:33:31;;;;;;;16.77;5.22;;;;;;;5.21;74.88;101298.66;10382092;28;20439;-65
2022/11/13 06:38:34;;;;;;;20.63;6.90;;;;;;;5.24;74.68;101287.78;10393531;28;20087;-64
2022/11/13 06:43:36;;;;;;;17.85;6.00;;;;;;;5.22;75.14;101290.56;10389589;28;20080;-65
2022/11/13 06:48:38;;;;;;;29.33;6.70;;;;;;;5.28;75.05;101300.75;10388914;28;20042;-67
2022/11/13 06:53:39;;;;;;;14.52;5.72;;;;;;;5.28;75.02;101294.56;10388777;28;20099;-62
2022/11/13 06:58:42;;;;;;;7.80;4.65;;;;;;;5.30;74.87;101290.81;10392363;28;20068;-67
2022/11/13 07:03:44;;;;;;;36.22;6.68;;;;;;;5.34;74.76;101288.78;10395793;28;20056;-65
2022/11/13 07:08:46;;;;;;;33.47;5.30;;;;;;;5.34;74.56;101288.78;10400666;28;20053;-66
2022/11/13 07:13:48;;;;;;;10.10;4.78;;;;;;;5.34;74.58;101292.28;10401336;28;20050;-67
2022/11/13 07:18:53;;;;;;;76.22;8.77;;;;;;;5.28;74.60;101284.75;10393526;28;20076;-67
2022/11/13 07:23:54;;;;;;;5.72;3.90;;;;;;;5.31;74.44;101287.19;10393809;28;20177;-65
2022/11/13 07:28:56;;;;;;;7.95;4.05;;;;;;;5.39;74.11;101291.94;10399272;28;20037;-66
2022/11/13 07:33:58;;;;;;;12.50;4.60;;;;;;;5.34;74.38;101286.94;10398295;28;20061;-66
2022/11/13 07:38:59;;;;;;;6.10;4.20;;;;;;;5.37;74.65;101285.84;10404575;28;20068;-66
2022/11/13 07:44:00;;;;;;;6.15;4.10;;;;;;;5.35;74.59;101286.00;10403553;28;20384;-66
2022/11/13 07:49:08;;;;;;;7.18;5.20;;;;;;;5.35;74.50;101291.31;10404890;28;20502;-65
2022/11/13 07:54:09;;;;;;;7.30;4.45;;;;;;;5.35;74.21;101285.13;10399188;28;20065;-65
2022/11/13 07:59:11;;;;;;;6.03;4.47;;;;;;;5.41;74.44;101286.47;10408259;28;20049;-63
2022/11/13 08:04:12;;;;;;;6.13;4.75;;;;;;;5.42;74.38;101282.84;10405072;28;20076;-66
2022/11/13 08:09:13;;;;;;;7.05;4.95;;;;;;;5.45;75.06;101279.91;10401818;28;20045;-68
2022/11/13 08:14:15;;;;;;;8.05;5.43;;;;;;;5.58;74.71;101272.66;10401189;28;20064;-65
2022/11/13 08:19:16;;;;;;;6.45;4.32;;;;;;;5.66;75.01;101272.91;10401177;28;20099;-66
2022/11/13 08:24:17;;;;;;;8.55;5.45;;;;;;;5.82;74.83;101263.69;10377316;28;20113;-62
2022/11/13 08:29:19;;;;;;;8.88;5.50;;;;;;;5.84;75.27;101253.75;10391877;28;20111;-66
2022/11/13 08:34:20;;;;;;;7.05;5.15;;;;;;;5.91;74.75;101247.78;10371868;28;20141;-67
2022/11/13 08:39:21;;;;;;;8.25;5.63;;;;;;;6.01;74.85;101241.75;10386936;28;20477;-67
2022/11/13 08:44:23;;;;;;;8.35;5.60;;;;;;;6.18;75.08;101230.56;10387610;28;20046;-68
2022/11/13 08:49:24;;;;;;;8.20;5.55;;;;;;;6.31;75.47;101225.88;10379887;28;20045;-67
2022/11/13 08:54:26;;;;;;;9.30;6.15;;;;;;;6.52;75.34;101209.91;10379249;28;20085;-67
2022/11/13 08:59:27;;;;;;;9.32;5.85;;;;;;;6.72;75.02;101210.06;10389872;28;20547;-65
2022/11/13 09:04:28;;;;;;;7.95;5.72;;;;;;;6.90;75.29;101213.84;10394537;28;20056;-67
2022/11/13 09:09:30;;;;;;;9.02;6.32;;;;;;;7.09;75.21;101205.09;10403752;28;20395;-67
2022/11/13 09:14:31;;;;;;;7.38;5.72;;;;;;;7.25;74.96;101209.97;10400861;28;20500;-66
2022/11/13 09:19:33;;;;;;;8.80;6.03;;;;;;;7.38;74.50;101192.84;10401948;28;20045;-66
2022/11/13 09:24:34;;;;;;;6.90;5.40;;;;;;;7.57;75.14;101174.19;10400494;28;20622;-65
2022/11/13 09:29:35;;;;;;;6.72;5.40;;;;;;;7.74;75.08;101168.19;10405857;28;20690;-68
2022/11/13 09:34:37;;;;;;;6.78;5.75;;;;;;;7.88;75.19;101158.06;10397618;28;20055;-67
2022/11/13 09:39:39;;;;;;;9.73;6.47;;;;;;;8.11;75.21;101159.47;10400185;28;20045;-62
2022/11/13 09:44:46;;;;;;;10.75;6.22;;;;;;;8.27;75.31;101156.28;10415418;28;20041;-67
2022/11/13 09:49:57;;;;;;;9.55;6.50;;;;;;;8.44;74.81;101154.72;10400546;28;20080;-63
2022/11/13 09:54:59;;;;;;;5.85;4.72;;;;;;;8.64;74.78;101165.44;10398391;28;20037;-65
2022/11/13 10:00:11;;;;;;;8.82;5.78;;;;;;;8.86;74.88;101161.59;10395075;28;20049;-67
2022/11/13 10:05:26;;;;;;;7.05;5.25;;;;;;;9.02;74.97;101150.25;10402253;28;20049;-66
2022/11/13 10:10:46;;;;;;;8.25;5.07;;;;;;;9.17;74.77;101142.59;10402313;28;20061;-65
2022/11/13 10:16:21;;;;;;;6.80;4.97;;;;;;;9.38;74.16;101126.22;10411505;28;20050;-65
2022/11/13 10:21:50;;;;;;;5.10;4.53;;;;;;;9.50;74.01;101114.31;10381640;28;20061;-65
2022/11/13 10:26:59;;;;;;;6.93;4.72;;;;;;;9.68;74.17;101114.34;10412713;28;20056;-65
2022/11/13 10:32:22;;;;;;;6.22;4.55;;;;;;;9.82;74.12;101108.47;10404150;28;20057;-65
2022/11/13 10:37:32;;;;;;;8.93;5.10;;;;;;;10.00;73.73;101105.78;10394624;28;20053;-63
2022/11/13 10:42:40;;;;;;;10.20;5.30;;;;;;;10.11;73.65;101092.13;10411578;28;20049;-66
2022/11/13 10:47:46;;;;;;;8.70;5.47;;;;;;;10.24;73.60;101080.97;10413001;28;20046;-66
2022/11/13 10:53:15;;;;;;;8.10;4.50;;;;;;;10.40;73.17;101072.22;10398169;28;20128;-66
2022/11/13 10:58:18;;;;;;;5.50;4.65;;;;;;;10.57;73.18;101064.28;10395765;28;20049;-67
2022/11/13 11:03:23;;;;;;;8.15;5.85;;;;;;;10.73;73.31;101023.19;10403999;28;20048;-65
2022/11/13 11:08:34;;;;;;;8.10;5.30;;;;;;;10.92;73.01;101022.97;10406652;28;20045;-65
2022/11/13 11:13:35;;;;;;;6.38;5.72;;;;;;;11.14;72.49;101004.50;10405531;28;20111;-67
2022/11/13 11:18:46;;;;;;;6.50;5.78;;;;;;;11.30;72.88;100991.94;10401199;28;20044;-63
2022/11/13 11:24:03;;;;;;;7.07;4.90;;;;;;;11.46;72.52;100976.84;10384574;28;20558;-66
2022/11/13 11:29:16;;;;;;;7.23;5.80;;;;;;;11.67;72.53;100968.25;10399906;28;20052;-67
2022/11/13 11:34:24;;;;;;;7.57;5.75;;;;;;;11.80;72.82;100938.13;10399809;28;20056;-65
2022/11/13 11:39:30;;;;;;;8.00;5.88;;;;;;;11.90;73.04;100926.19;10419320;28;20051;-65
2022/11/13 11:44:46;;;;;;;7.00;5.55;;;;;;;12.09;72.66;100900.75;10426951;28;20040;-68
2022/11/13 11:49:48;;;;;;;9.45;5.82;;;;;;;12.36;71.96;100903.19;10395719;28;20511;-64
2022/11/13 11:55:31;;;;;;;9.07;4.80;;;;;;;12.53;72.21;100890.50;10469506;23;20084;-63
2022/11/13 12:00:40;;;;;;;5.63;4.18;;;;;;;12.71;71.88;100901.84;10380289;28;20068;-64
2022/11/13 12:05:56;;;;;;;5.57;4.40;;;;;;;12.87;71.09;100901.78;10442452;28;20132;-64
2022/11/13 12:11:03;;;;;;;6.65;4.60;;;;;;;13.02;70.91;100884.81;10427389;28;20123;-65
2022/11/13 12:16:42;;;;;;;4.90;4.20;;;;;;;13.17;70.44;100879.47;10446276;28;20509;-67
2022/11/13 12:21:55;;;;;;;6.70;3.90;;;;;;;13.33;70.00;100874.00;10449591;28;20533;-64
2022/11/13 12:27:20;;;;;;;6.20;3.95;;;;;;;13.50;69.64;100861.19;10444091;28;20495;-63
2022/11/13 12:32:34;;;;;;;5.32;3.80;;;;;;;13.61;69.46;100852.66;10444247;28;20128;-63
2022/11/13 12:37:41;;;;;;;5.40;4.10;;;;;;;13.71;68.99;100851.56;10428405;28;20443;-62
2022/11/13 12:42:53;;;;;;;6.72;3.03;;;;;;;13.80;68.19;100858.53;10422129;28;20136;-62
2022/11/13 12:47:55;;;;;;;6.25;2.83;;;;;;;13.86;67.65;100858.66;10445143;28;20084;-64
2022/11/13 12:53:01;;;;;;;4.45;3.28;;;;;;;13.96;67.16;100863.78;10430729;28;20087;-62
2022/11/13 12:58:31;;;;;;;6.70;3.17;;;;;;;13.94;67.02;100857.72;10406350;28;20077;-62
2022/11/13 13:04:04;;;;;;;4.93;3.03;;;;;;;14.00;66.98;100862.38;10385624;28;20054;-62
2022/11/13 13:09:17;;;;;;;7.03;3.65;;;;;;;14.05;66.63;100859.94;10406930;28;20080;-62
2022/11/13 13:14:39;;;;;;;6.40;4.70;;;;;;;14.14;66.04;100840.91;10403198;28;20140;-63
2022/11/13 13:19:41;;;;;;;5.28;3.22;;;;;;;14.17;65.72;100836.00;10404291;28;20084;-63
2022/11/13 13:24:42;;;;;;;4.90;3.38;;;;;;;14.17;65.53;100818.94;10403970;28;20594;-65
2022/11/13 13:29:43;;;;;;;4.40;3.53;;;;;;;14.23;65.37;100808.19;10407840;28;20069;-62
2022/11/13 13:35:07;;;;;;;4.28;2.63;;;;;;;14.28;65.07;100807.66;10413806;28;20049;-59
2022/11/13 13:40:08;;;;;;;4.63;4.15;;;;;;;14.29;65.06;100806.59;10393146;28;20499;-63
2022/11/13 13:45:50;;;;;;;5.60;3.35;;;;;;;14.27;64.71;100789.72;10407462;28;20064;-59
2022/11/13 13:50:52;;;;;;;5.13;3.15;;;;;;;14.26;64.50;100778.09;10383711;28;20525;-60
2022/11/13 13:55:55;;;;;;;4.35;3.33;;;;;;;14.35;64.44;100777.97;10405609;28;20049;-60
2022/11/13 14:00:59;;;;;;;4.43;3.20;;;;;;;14.38;64.62;100777.59;10413000;28;20498;-59
2022/11/13 14:06:23;;;;;;;4.55;3.60;;;;;;;14.35;64.20;100759.03;10409292;28;20045;-61
2022/11/13 14:11:28;;;;;;;5.15;3.47;;;;;;;14.35;64.11;100767.97;10408808;28;20140;-62
2022/11/13 14:16:29;;;;;;;7.47;4.82;;;;;;;14.38;63.78;100750.56;10409391;28;20046;-61
2022/11/13 14:21:31;;;;;;;6.57;3.47;;;;;;;14.36;63.62;100737.22;10409036;28;20060;-61
2022/11/13 14:26:33;;;;;;;6.32;2.85;;;;;;;14.32;63.37;100719.69;10408878;28;20054;-59
2022/11/13 14:31:35;;;;;;;9.70;4.38;;;;;;;14.31;63.50;100717.19;10360449;28;20347;-59
2022/11/13 14:36:39;;;;;;;3.30;2.47;;;;;;;14.34;63.23;100711.41;10379238;28;20141;-58
2022/11/13 14:41:48;;;;;;;2.85;2.40;;;;;;;14.37;62.98;100689.34;10409746;28;20132;-59
2022/11/13 14:46:59;;;;;;;3.78;2.50;;;;;;;14.38;62.89;100675.66;10413686;28;20136;-59
2022/11/13 14:52:01;;;;;;;4.30;3.22;;;;;;;14.36;63.09;100675.00;10393465;28;20053;-61
2022/11/13 14:57:08;;;;;;;4.75;2.47;;;;;;;14.40;62.82;100665.47;10409515;28;20049;-58
2022/11/13 15:02:11;;;;;;;4.10;2.40;;;;;;;14.35;62.82;100661.66;10410725;28;20137;-58
2022/11/13 15:07:33;;;;;;;6.55;3.03;;;;;;;14.27;63.02;100666.16;10408014;28;20100;-58
2022/11/13 15:12:34;;;;;;;5.32;4.00;;;;;;;14.22;63.10;100665.09;10405330;28;20073;-70
2022/11/13 15:17:35;;;;;;;5.97;3.33;;;;;;;14.12;63.26;100675.34;10407286;28;20486;-60
2022/11/13 15:22:38;;;;;;;8.63;5.43;;;;;;;14.00;63.80;100681.28;10396120;28;20068;-59
2022/11/13 15:28:04;;;;;;;4.55;3.22;;;;;;;13.83;64.57;100677.13;10414653;28;20132;-61
2022/11/13 15:33:13;;;;;;;4.57;3.33;;;;;;;13.71;64.84;100667.84;10414447;28;20133;-60
2022/11/13 15:38:14;;;;;;;9.70;4.25;;;;;;;13.63;64.82;100675.00;10418723;28;20054;-61
2022/11/13 15:43:20;;;;;;;7.80;5.55;;;;;;;13.49;65.14;100662.38;10419765;28;20111;-59
2022/11/13 15:48:22;;;;;;;13.02;6.97;;;;;;;13.38;65.39;100676.31;10417311;28;20038;-61
2022/11/13 15:53:23;;;;;;;13.02;7.95;;;;;;;13.20;65.83;100665.88;10399187;28;20494;-60
2022/11/13 15:58:25;;;;;;;11.38;5.53;;;;;;;12.96;66.52;100648.91;10397491;28;20049;-59
2022/11/13 16:03:38;;;;;;;27.77;9.73;;;;;;;12.78;66.70;100660.03;10414585;28;20140;-59
2022/11/13 16:08:39;;;;;;;16.02;7.93;;;;;;;12.58;66.87;100666.94;10397299;28;20117;-62
2022/11/13 16:13:41;;;;;;;13.13;7.35;;;;;;;12.41;67.18;100655.47;10406704;28;20055;-62
2022/11/13 16:18:43;;;;;;;15.63;9.20;;;;;;;12.24;67.72;100673.59;10409152;28;20066;-62
2022/11/13 16:23:44;;;;;;;14.98;9.60;;;;;;;12.12;67.84;100673.19;10412168;28;20053;-62
2022/11/13 16:28:47;;;;;;;22.15;11.63;;;;;;;11.90;68.01;100664.88;10406988;28;20049;-63
2022/11/13 16:34:08;;;;;;;20.35;12.93;;;;;;;11.74;67.85;100662.25;10409767;28;20068;-62
2022/11/13 16:39:14;;;;;;;19.20;11.70;;;;;;;11.53;68.74;100665.53;10408636;28;20459;-62
2022/11/13 16:44:16;;;;;;;19.33;10.68;;;;;;;11.39;68.46;100663.56;10410786;28;20077;-62
2022/11/13 16:49:20;;;;;;;16.85;8.93;;;;;;;11.19;68.92;100655.06;10408869;28;20076;-62
2022/11/13 16:54:21;;;;;;;10.40;6.93;;;;;;;11.03;69.50;100651.38;10413747;28;20045;-62
2022/11/13 16:59:22;;;;;;;11.50;7.95;;;;;;;10.97;69.35;100656.63;10410077;28;20079;-61
2022/11/13 17:04:24;;;;;;;16.92;12.15;;;;;;;10.91;69.74;100642.84;10407880;28;20071;-62
2022/11/13 17:09:25;;;;;;;17.60;11.10;;;;;;;10.84;69.49;100638.31;10393579;28;20045;-63
2022/11/13 17:14:27;;;;;;;19.15;10.65;;;;;;;10.75;69.93;100640.19;10410263;28;20098;-62
2022/11/13 17:19:28;;;;;;;21.05;11.98;;;;;;;10.67;69.67;100640.19;10411519;28;20443;-63
2022/11/13 17:24:29;;;;;;;18.05;11.77;;;;;;;10.57;69.29;100639.53;10405950;28;20065;-63
2022/11/13 17:29:32;;;;;;;13.50;7.65;;;;;;;10.37;69.77;100629.13;10405467;28;20128;-63
2022/11/13 17:34:33;;;;;;;13.73;8.45;;;;;;;10.35;69.60;100625.78;10408677;28;20399;-62
2022/11/13 17:39:34;;;;;;;14.48;8.52;;;;;;;10.23;69.43;100622.53;10407245;28;20156;-62
2022/11/13 17:44:36;;;;;;;17.40;9.20;;;;;;;10.13;69.67;100624.56;10406332;28;20061;-62
2022/11/13 17:49:37;;;;;;;14.60;9.95;;;;;;;10.00;69.45;100627.72;10405774;28;20049;-62
2022/11/13 17:54:39;;;;;;;16.92;10.88;;;;;;;9.87;69.54;100616.59;10404765;28;20399;-63
2022/11/13 17:59:40;;;;;;;16.00;10.82;;;;;;;9.70;69.76;100621.94;10403727;28;20096;-62
2022/11/13 18:04:42;;;;;;;17.50;10.75;;;;;;;9.66;69.86;100619.75;10406794;28;20977;-63
2022/11/13 18:09:43;;;;;;;18.10;11.52;;;;;;;9.53;69.87;100630.94;10407046;28;20137;-63
2022/11/13 18:14:51;;;;;;;16.75;11.25;;;;;;;9.48;69.80;100619.88;10409260;28;20139;-63
2022/11/13 18:19:54;;;;;;;31.70;14.52;;;;;;;9.38;69.84;100621.81;10407884;28;20044;-62
2022/11/13 18:25:02;;;;;;;38.53;17.60;;;;;;;9.24;70.22;100621.44;10408372;28;20045;-62
2022/11/13 18:30:04;;;;;;;18.25;11.23;;;;;;;9.13;70.53;100611.81;10408939;28;20037;-62
2022/11/13 18:35:06;;;;;;;23.88;12.82;;;;;;;9.03;70.48;100612.97;10406253;28;20064;-63
2022/11/13 18:40:08;;;;;;;30.15;14.15;;;;;;;8.96;70.01;100604.69;10404599;28;20115;-63
2022/11/13 18:45:10;;;;;;;38.60;21.73;;;;;;;8.81;70.78;100609.81;10408023;28;20042;-62
2022/11/13 18:50:12;;;;;;;92.63;53.40;;;;;;;8.77;70.23;100610.25;10404989;28;20042;-62
2022/11/13 18:55:13;;;;;;;40.30;20.70;;;;;;;8.69;70.48;100611.09;10405229;28;20103;-64
2022/11/13 19:00:15;;;;;;;27.75;18.52;;;;;;;8.53;70.90;100599.25;10407246;28;20045;-63
2022/11/13 19:05:17;;;;;;;32.25;20.85;;;;;;;8.40;70.71;100590.75;10411512;28;20140;-63
2022/11/13 19:10:18;;;;;;;15.20;10.15;;;;;;;8.23;70.90;100578.22;10409778;28;20045;-63
2022/11/13 19:15:20;;;;;;;17.20;8.57;;;;;;;8.08;71.08;100564.53;10413736;28;20045;-62
2022/11/13 19:20:21;;;;;;;20.40;11.50;;;;;;;8.12;71.14;100569.44;10415022;28;20060;-63
2022/11/13 19:25:22;;;;;;;29.13;17.75;;;;;;;8.12;71.14;100566.75;10412475;28;20115;-62
2022/11/13 19:30:24;;;;;;;21.25;13.35;;;;;;;8.01;70.86;100558.13;10409195;28;20395;-61
2022/11/13 19:35:25;;;;;;;17.85;10.10;;;;;;;7.90;71.57;100551.19;10410521;28;20073;-62
2022/11/13 19:40:27;;;;;;;18.48;9.32;;;;;;;7.91;71.11;100555.53;10411184;28;20072;-62
2022/11/13 19:45:29;;;;;;;18.60;11.93;;;;;;;7.92;71.25;100555.38;10409475;28;20068;-65
2022/11/13 19:50:31;;;;;;;19.65;11.27;;;;;;;7.87;71.00;100562.19;10410914;28;20088;-64
2022/11/13 19:55:33;;;;;;;17.42;11.82;;;;;;;7.83;71.17;100550.94;10408212;28;20065;-66
2022/11/13 20:00:35;;;;;;;20.08;12.32;;;;;;;7.75;70.56;100553.53;10412222;28;20451;-64
2022/11/13 20:05:40;;;;;;;19.33;12.52;;;;;;;7.69;71.06;100554.97;10393710;28;20083;-66
2022/11/13 20:10:42;;;;;;;21.20;12.13;;;;;;;7.67;71.28;100546.28;10409105;28;20065;-64
2022/11/13 20:15:50;;;;;;;20.70;12.07;;;;;;;7.59;71.34;100542.69;10389931;28;20132;-64
2022/11/13 20:20:52;;;;;;;22.35;12.52;;;;;;;7.54;71.61;100545.78;10409087;28;20041;-64
2022/11/13 20:25:58;;;;;;;15.98;11.10;;;;;;;7.49;71.34;100538.22;10410912;28;20057;-64
2022/11/13 20:31:06;;;;;;;19.33;11.50;;;;;;;7.50;71.61;100537.25;10411213;28;20128;-65
2022/11/13 20:36:08;;;;;;;15.15;8.05;;;;;;;7.48;71.67;100536.53;10413133;28;20144;-64
2022/11/13 20:41:11;;;;;;;15.88;9.02;;;;;;;7.54;71.11;100537.75;10411194;28;20087;-63
2022/11/13 20:46:14;;;;;;;15.32;8.30;;;;;;;7.54;71.83;100545.78;10392980;28;20167;-65
2022/11/13 20:51:19;;;;;;;12.95;8.00;;;;;;;7.53;71.78;100547.63;10408144;28;20046;-63
2022/11/13 20:56:22;;;;;;;11.63;7.55;;;;;;;7.53;71.29;100544.13;10409938;28;20496;-62
2022/11/13 21:01:24;;;;;;;11.95;7.97;;;;;;;7.55;71.67;100547.50;10389141;28;20219;-63
2022/11/13 21:06:26;;;;;;;14.65;8.68;;;;;;;7.49;71.43;100543.59;10375366;28;20107;-63
2022/11/13 21:11:28;;;;;;;14.82;8.75;;;;;;;7.48;71.48;100544.56;10389520;28;20132;-63
2022/11/13 21:16:30;;;;;;;19.80;11.10;;;;;;;7.41;71.84;100546.19;10408164;28;20394;-63
2022/11/13 21:21:31;;;;;;;23.35;14.13;;;;;;;7.44;71.55;100545.84;10380005;28;20045;-64
2022/11/13 21:26:33;;;;;;;20.92;13.20;;;;;;;7.37;72.05;100547.47;10402923;28;20125;-65
2022/11/13 21:31:34;;;;;;;17.77;12.15;;;;;;;7.28;71.80;100527.81;10387992;28;20076;-65
2022/11/13 21:36:35;;;;;;;17.83;10.52;;;;;;;7.20;72.54;100535.72;10405944;28;20076;-65
2022/11/13 21:41:37;;;;;;;15.68;8.88;;;;;;;7.17;72.15;100536.06;10408862;28;20041;-64
2022/11/13 21:46:40;;;;;;;20.25;12.70;;;;;;;7.17;71.50;100533.38;10408547;28;20125;-64
2022/11/13 21:51:42;;;;;;;15.38;10.30;;;;;;;7.10;71.94;100527.78;10404512;28;20547;-63
2022/11/13 21:56:43;;;;;;;21.08;14.20;;;;;;;7.03;71.29;100520.50;10409533;28;20132;-64
2022/11/13 22:01:45;;;;;;;18.77;12.50;;;;;;;6.96;71.95;100517.59;10409663;28;20517;-63
2022/11/13 22:06:48;;;;;;;18.60;11.55;;;;;;;6.87;71.10;100510.44;10390190;28;20056;-63
2022/11/13 22:11:50;;;;;;;14.30;8.70;;;;;;;6.80;71.82;100506.69;10405411;28;20076;-63
2022/11/13 22:16:51;;;;;;;19.25;11.40;;;;;;;6.67;71.59;100504.34;10402491;28;20448;-64
2022/11/13 22:21:53;;;;;;;35.67;19.38;;;;;;;6.54;71.81;100508.19;10393023;28;20076;-62
2022/11/13 22:26:54;;;;;;;15.95;9.02;;;;;;;6.43;72.16;100497.69;10404803;28;20069;-62
2022/11/13 22:31:55;;;;;;;16.88;9.00;;;;;;;6.41;72.29;100504.16;10411634;28;20441;-62
2022/11/13 22:36:57;;;;;;;16.55;9.07;;;;;;;6.38;72.55;100494.63;10403652;28;20140;-64
2022/11/13 22:41:58;;;;;;;18.33;8.85;;;;;;;6.41;72.29;100496.16;10405650;28;20081;-63
2022/11/13 22:46:59;;;;;;;16.45;9.20;;;;;;;6.43;71.87;100491.50;10403860;28;20052;-62
2022/11/13 22:52:01;;;;;;;15.13;8.95;;;;;;;6.40;72.11;100487.31;10386633;28;20046;-62
2022/11/13 22:57:02;;;;;;;16.00;8.10;;;;;;;6.33;71.94;100478.19;10407151;28;20077;-62
2022/11/13 23:02:04;;;;;;;15.85;10.07;;;;;;;6.42;71.92;100476.47;10403174;28;20064;-63
2022/11/13 23:07:05;;;;;;;14.05;7.60;;;;;;;6.40;71.60;100473.97;10404104;28;20124;-63
2022/11/13 23:12:08;;;;;;;13.98;8.02;;;;;;;6.35;72.17;100458.38;10402850;28;20077;-64
2022/11/13 23:17:09;;;;;;;14.70;8.57;;;;;;;6.30;71.85;100457.97;10401899;28;20579;-64
2022/11/13 23:22:11;;;;;;;12.93;8.63;;;;;;;6.24;71.53;100458.56;10404302;28;20061;-64